sensor_id;sensor_type;location;lat;lon;timestamp;pressure;altitude;pressure_sealevel;temperature;humidity
76311;BME280;65120;59.304;18.294;2024-01-15T00:01:08;98597.84;;;-3.32;72.12
76311;BME280;65120;59.304;18.294;2024-01-15T00:03:36;98603.81;;;-3.31;71.78
76311;BME280;65120;59.304;18.294;2024-01-15T00:06:04;98603.84;;;-3.33;72.24
76311;BME280;65120;59.304;18.294;2024-01-15T00:08:31;98596.16;;;-3.36;71.77
76311;BME280;65120;59.304;18.294;2024-01-15T00:10:58;98587.66;;;-3.41;71.58
76311;BME280;65120;59.304;18.294;2024-01-15T00:13:25;98582.53;;;-3.44;71.71
76311;BME280;65120;59.304;18.294;2024-01-15T00:15:52;98575.72;;;-3.48;72.09
76311;BME280;65120;59.304;18.294;2024-01-15T00:18:19;98583.38;;;-3.51;71.57
76311;BME280;65120;59.304;18.294;2024-01-15T00:20:47;98590.22;;;-3.53;71.19
76311;BME280;65120;59.304;18.294;2024-01-15T00:23:14;98587.66;;;-3.55;71.21
76311;BME280;65120;59.304;18.294;2024-01-15T00:25:41;98590.22;;;-3.55;71.39
76311;BME280;65120;59.304;18.294;2024-01-15T00:28:08;98585.09;;;-3.56;71.43
76311;BME280;65120;59.304;18.294;2024-01-15T00:30:35;98583.41;;;-3.59;71.42
76311;BME280;65120;59.304;18.294;2024-01-15T00:33:02;98588.53;;;-3.59;71.12
76311;BME280;65120;59.304;18.294;2024-01-15T00:35:30;98586.81;;;-3.63;71.05
76311;BME280;65120;59.304;18.294;2024-01-15T00:37:58;98579.16;;;-3.66;71.20
76311;BME280;65120;59.304;18.294;2024-01-15T00:40:25;98583.41;;;-3.68;70.79
76311;BME280;65120;59.304;18.294;2024-01-15T00:42:52;98568.91;;;-3.71;71.30
76311;BME280;65120;59.304;18.294;2024-01-15T00:45:19;98568.06;;;-3.71;71.03
76311;BME280;65120;59.304;18.294;2024-01-15T00:47:46;98559.59;;;-3.73;71.51
76311;BME280;65120;59.304;18.294;2024-01-15T00:50:13;98568.09;;;-3.73;71.21
76311;BME280;65120;59.304;18.294;2024-01-15T00:52:40;98566.38;;;-3.75;71.35
76311;BME280;65120;59.304;18.294;2024-01-15T00:55:08;98557.84;;;-3.74;71.60
76311;BME280;65120;59.304;18.294;2024-01-15T00:57:35;98561.25;;;-3.77;71.06
76311;BME280;65120;59.304;18.294;2024-01-15T01:00:03;98554.44;;;-3.76;71.87
76311;BME280;65120;59.304;18.294;2024-01-15T01:02:30;98545.94;;;-3.77;71.45
76311;BME280;65120;59.304;18.294;2024-01-15T01:04:57;98547.66;;;-3.79;71.32
76311;BME280;65120;59.304;18.294;2024-01-15T01:07:24;98545.97;;;-3.81;71.15
76311;BME280;65120;59.304;18.294;2024-01-15T01:09:51;98545.09;;;-3.80;72.00
76311;BME280;65120;59.304;18.294;2024-01-15T01:12:19;98534.88;;;-3.80;71.48
76311;BME280;65120;59.304;18.294;2024-01-15T01:14:46;98537.44;;;-3.83;71.82
76311;BME280;65120;59.304;18.294;2024-01-15T01:17:13;98534.88;;;-3.83;70.95
76311;BME280;65120;59.304;18.294;2024-01-15T01:19:40;98534.03;;;-3.85;71.39
76311;BME280;65120;59.304;18.294;2024-01-15T01:22:07;98522.94;;;-3.86;71.54
76311;BME280;65120;59.304;18.294;2024-01-15T01:24:34;98527.22;;;-3.89;71.22
76311;BME280;65120;59.304;18.294;2024-01-15T01:27:01;98522.13;;;-3.89;71.40
76311;BME280;65120;59.304;18.294;2024-01-15T01:29:29;98522.94;;;-3.90;71.63
76311;BME280;65120;59.304;18.294;2024-01-15T01:31:56;98508.47;;;-3.91;71.20
76311;BME280;65120;59.304;18.294;2024-01-15T01:34:23;98515.28;;;-3.90;71.41
76311;BME280;65120;59.304;18.294;2024-01-15T01:36:50;98505.09;;;-3.95;71.25
76311;BME280;65120;59.304;18.294;2024-01-15T01:39:17;98502.53;;;-3.92;71.71
76311;BME280;65120;59.304;18.294;2024-01-15T01:41:44;98510.19;;;-3.90;71.85
76311;BME280;65120;59.304;18.294;2024-01-15T01:44:11;98505.94;;;-3.91;71.79
76311;BME280;65120;59.304;18.294;2024-01-15T01:46:39;98504.25;;;-3.92;71.99
76311;BME280;65120;59.304;18.294;2024-01-15T01:49:06;98499.13;;;-3.92;71.38
76311;BME280;65120;59.304;18.294;2024-01-15T01:51:34;98497.41;;;-3.97;71.85
76311;BME280;65120;59.304;18.294;2024-01-15T01:54:03;98490.59;;;-3.95;71.81
76311;BME280;65120;59.304;18.294;2024-01-15T01:56:31;98499.13;;;-3.97;71.54
76311;BME280;65120;59.304;18.294;2024-01-15T01:58:58;98500.81;;;-3.99;71.70
76311;BME280;65120;59.304;18.294;2024-01-15T02:01:25;98499.97;;;-4.00;71.85
76311;BME280;65120;59.304;18.294;2024-01-15T02:03:53;98488.91;;;-4.03;71.94
76311;BME280;65120;59.304;18.294;2024-01-15T02:06:22;98489.78;;;-4.01;72.02
76311;BME280;65120;59.304;18.294;2024-01-15T02:08:50;98490.63;;;-4.04;71.51
76311;BME280;65120;59.304;18.294;2024-01-15T02:11:17;98491.44;;;-4.05;71.86
76311;BME280;65120;59.304;18.294;2024-01-15T02:13:44;98496.56;;;-4.05;72.25
76311;BME280;65120;59.304;18.294;2024-01-15T02:16:11;98482.13;;;-4.04;72.34
76311;BME280;65120;59.304;18.294;2024-01-15T02:18:41;98482.97;;;-4.07;72.31
76311;BME280;65120;59.304;18.294;2024-01-15T02:21:10;98482.97;;;-4.07;72.11
76311;BME280;65120;59.304;18.294;2024-01-15T02:23:39;98488.06;;;-4.07;71.83
76311;BME280;65120;59.304;18.294;2024-01-15T02:26:06;98484.66;;;-4.10;72.04
76311;BME280;65120;59.304;18.294;2024-01-15T02:28:34;98483.81;;;-4.09;72.18
76311;BME280;65120;59.304;18.294;2024-01-15T02:31:01;98481.25;;;-4.11;72.12
76311;BME280;65120;59.304;18.294;2024-01-15T02:33:28;98484.66;;;-4.12;71.88
76311;BME280;65120;59.304;18.294;2024-01-15T02:35:55;98477.88;;;-4.13;71.69
76311;BME280;65120;59.304;18.294;2024-01-15T02:38:22;98472.75;;;-4.18;72.21
76311;BME280;65120;59.304;18.294;2024-01-15T02:40:50;98471.91;;;-4.15;71.88
76311;BME280;65120;59.304;18.294;2024-01-15T02:43:17;98481.28;;;-4.15;72.27
76311;BME280;65120;59.304;18.294;2024-01-15T02:45:45;98483.78;;;-4.22;72.15
76311;BME280;65120;59.304;18.294;2024-01-15T02:48:12;98477.84;;;-4.22;71.96
76311;BME280;65120;59.304;18.294;2024-01-15T02:50:39;98472.75;;;-4.24;72.36
76311;BME280;65120;59.304;18.294;2024-01-15T02:53:06;98465.09;;;-4.27;71.96
76311;BME280;65120;59.304;18.294;2024-01-15T02:55:32;98479.56;;;-4.24;72.32
76311;BME280;65120;59.304;18.294;2024-01-15T02:58:01;98479.56;;;-4.27;72.16
76311;BME280;65120;59.304;18.294;2024-01-15T03:00:28;98482.94;;;-4.25;71.96
76311;BME280;65120;59.304;18.294;2024-01-15T03:02:55;98479.56;;;-4.27;71.97
76311;BME280;65120;59.304;18.294;2024-01-15T03:05:22;98483.81;;;-4.32;72.10
76311;BME280;65120;59.304;18.294;2024-01-15T03:07:49;98477.00;;;-4.36;72.03
76311;BME280;65120;59.304;18.294;2024-01-15T03:10:16;98477.84;;;-4.37;72.08
76311;BME280;65120;59.304;18.294;2024-01-15T03:12:43;98480.41;;;-4.37;72.23
76311;BME280;65120;59.304;18.294;2024-01-15T03:15:11;98482.13;;;-4.38;71.97
76311;BME280;65120;59.304;18.294;2024-01-15T03:17:38;98486.34;;;-4.37;72.14
76311;BME280;65120;59.304;18.294;2024-01-15T03:20:06;98494.00;;;-4.37;72.16
76311;BME280;65120;59.304;18.294;2024-01-15T03:22:33;98495.72;;;-4.37;72.52
76311;BME280;65120;59.304;18.294;2024-01-15T03:25:00;98474.44;;;-4.40;72.10
76311;BME280;65120;59.304;18.294;2024-01-15T03:27:27;98477.00;;;-4.41;72.48
76311;BME280;65120;59.304;18.294;2024-01-15T03:29:54;98477.00;;;-4.43;72.24
76311;BME280;65120;59.304;18.294;2024-01-15T03:32:22;98488.06;;;-4.44;72.37
76311;BME280;65120;59.304;18.294;2024-01-15T03:34:49;98483.81;;;-4.46;72.30
76311;BME280;65120;59.304;18.294;2024-01-15T03:37:17;98482.09;;;-4.47;72.33
76311;BME280;65120;59.304;18.294;2024-01-15T03:39:45;98479.56;;;-4.49;72.05
76311;BME280;65120;59.304;18.294;2024-01-15T03:42:12;98482.09;;;-4.49;72.20
76311;BME280;65120;59.304;18.294;2024-01-15T03:44:39;98490.59;;;-4.48;72.56
76311;BME280;65120;59.304;18.294;2024-01-15T03:47:06;98494.00;;;-4.49;72.13
76311;BME280;65120;59.304;18.294;2024-01-15T03:49:35;98494.00;;;-4.49;72.31
76311;BME280;65120;59.304;18.294;2024-01-15T03:52:02;98492.31;;;-4.49;71.81
76311;BME280;65120;59.304;18.294;2024-01-15T03:54:29;98488.06;;;-4.50;71.93
76311;BME280;65120;59.304;18.294;2024-01-15T03:56:56;98493.16;;;-4.53;71.77
76311;BME280;65120;59.304;18.294;2024-01-15T03:59:23;98485.50;;;-4.54;71.40
76311;BME280;65120;59.304;18.294;2024-01-15T04:01:50;98488.03;;;-4.56;71.35
76311;BME280;65120;59.304;18.294;2024-01-15T04:04:17;98476.16;;;-4.58;71.74
76311;BME280;65120;59.304;18.294;2024-01-15T04:06:45;98482.09;;;-4.58;71.88
76311;BME280;65120;59.304;18.294;2024-01-15T04:09:13;98485.50;;;-4.60;72.02
76311;BME280;65120;59.304;18.294;2024-01-15T04:11:40;98472.72;;;-4.62;71.63
76311;BME280;65120;59.304;18.294;2024-01-15T04:14:07;98489.75;;;-4.61;71.74
76311;BME280;65120;59.304;18.294;2024-01-15T04:16:34;98478.66;;;-4.62;71.71
76311;BME280;65120;59.304;18.294;2024-01-15T04:19:01;98488.03;;;-4.60;71.97
76311;BME280;65120;59.304;18.294;2024-01-15T04:21:28;98484.66;;;-4.61;71.88
76311;BME280;65120;59.304;18.294;2024-01-15T04:23:56;98476.97;;;-4.63;71.69
76311;BME280;65120;59.304;18.294;2024-01-15T04:26:23;98490.59;;;-4.62;71.91
76311;BME280;65120;59.304;18.294;2024-01-15T04:28:50;98489.75;;;-4.64;71.22
76311;BME280;65120;59.304;18.294;2024-01-15T04:31:21;98482.91;;;-4.68;71.09
76311;BME280;65120;59.304;18.294;2024-01-15T04:33:49;98487.19;;;-4.69;70.69
76311;BME280;65120;59.304;18.294;2024-01-15T04:36:15;98488.88;;;-4.72;71.35
76311;BME280;65120;59.304;18.294;2024-01-15T04:38:42;98492.28;;;-4.72;71.06
76311;BME280;65120;59.304;18.294;2024-01-15T04:41:12;98480.38;;;-4.74;70.72
76311;BME280;65120;59.304;18.294;2024-01-15T04:43:39;98484.63;;;-4.75;71.04
76311;BME280;65120;59.304;18.294;2024-01-15T04:46:06;98489.72;;;-4.75;71.13
76311;BME280;65120;59.304;18.294;2024-01-15T04:48:33;98496.53;;;-4.75;71.18
76311;BME280;65120;59.304;18.294;2024-01-15T04:51:00;98503.31;;;-4.76;71.37
76311;BME280;65120;59.304;18.294;2024-01-15T04:53:27;98494.81;;;-4.76;71.29
76311;BME280;65120;59.304;18.294;2024-01-15T04:55:54;98496.50;;;-4.77;70.97
76311;BME280;65120;59.304;18.294;2024-01-15T04:58:22;98489.69;;;-4.79;71.07
76311;BME280;65120;59.304;18.294;2024-01-15T05:00:51;98490.56;;;-4.80;71.21
76311;BME280;65120;59.304;18.294;2024-01-15T05:03:18;98494.78;;;-4.82;71.29
76311;BME280;65120;59.304;18.294;2024-01-15T05:05:45;98492.25;;;-4.82;71.69
76311;BME280;65120;59.304;18.294;2024-01-15T05:08:12;98487.97;;;-4.85;70.94
76311;BME280;65120;59.304;18.294;2024-01-15T05:10:39;98486.28;;;-4.86;70.94
76311;BME280;65120;59.304;18.294;2024-01-15T05:13:06;98489.69;;;-4.86;71.33
76311;BME280;65120;59.304;18.294;2024-01-15T05:15:34;98482.06;;;-4.84;71.55
76311;BME280;65120;59.304;18.294;2024-01-15T05:18:01;98495.66;;;-4.83;71.63
76311;BME280;65120;59.304;18.294;2024-01-15T05:20:28;98494.78;;;-4.82;71.35
76311;BME280;65120;59.304;18.294;2024-01-15T05:22:55;98498.19;;;-4.85;70.53
76311;BME280;65120;59.304;18.294;2024-01-15T05:25:22;98488.00;;;-4.87;70.42
76311;BME280;65120;59.304;18.294;2024-01-15T05:27:49;98487.97;;;-4.88;70.56
76311;BME280;65120;59.304;18.294;2024-01-15T05:30:16;98481.16;;;-4.94;70.41
76311;BME280;65120;59.304;18.294;2024-01-15T05:32:44;98481.16;;;-4.91;70.46
76311;BME280;65120;59.304;18.294;2024-01-15T05:35:11;98492.22;;;-4.89;70.87
76311;BME280;65120;59.304;18.294;2024-01-15T05:37:43;98494.78;;;-4.89;69.88
76311;BME280;65120;59.304;18.294;2024-01-15T05:40:11;98487.09;;;-4.93;69.49
76311;BME280;65120;59.304;18.294;2024-01-15T05:42:39;98493.06;;;-4.91;69.72
76311;BME280;65120;59.304;18.294;2024-01-15T05:45:06;98502.44;;;-4.92;69.60
76311;BME280;65120;59.304;18.294;2024-01-15T05:47:33;98501.56;;;-4.94;69.97
76311;BME280;65120;59.304;18.294;2024-01-15T05:50:02;98502.44;;;-4.95;69.87
76311;BME280;65120;59.304;18.294;2024-01-15T05:52:30;98502.41;;;-4.96;69.74
76311;BME280;65120;59.304;18.294;2024-01-15T05:54:57;98504.09;;;-5.00;68.78
76311;BME280;65120;59.304;18.294;2024-01-15T05:57:24;98499.00;;;-5.03;69.20
76311;BME280;65120;59.304;18.294;2024-01-15T05:59:51;98503.22;;;-5.05;69.33
76311;BME280;65120;59.304;18.294;2024-01-15T06:02:18;98503.22;;;-5.05;68.89
76311;BME280;65120;59.304;18.294;2024-01-15T06:04:45;98494.72;;;-5.09;69.00
76311;BME280;65120;59.304;18.294;2024-01-15T06:07:13;98506.63;;;-5.09;69.13
76311;BME280;65120;59.304;18.294;2024-01-15T06:09:40;98504.03;;;-5.14;68.46
76311;BME280;65120;59.304;18.294;2024-01-15T06:12:08;98514.25;;;-5.14;68.29
76311;BME280;65120;59.304;18.294;2024-01-15T06:14:35;98512.53;;;-5.16;68.28
76311;BME280;65120;59.304;18.294;2024-01-15T06:17:02;98509.97;;;-5.19;68.46
76311;BME280;65120;59.304;18.294;2024-01-15T06:19:29;98520.16;;;-5.22;68.83
76311;BME280;65120;59.304;18.294;2024-01-15T06:21:55;98518.47;;;-5.20;67.57
76311;BME280;65120;59.304;18.294;2024-01-15T06:24:24;98521.84;;;-5.24;67.96
76311;BME280;65120;59.304;18.294;2024-01-15T06:26:51;98516.75;;;-5.26;67.73
76311;BME280;65120;59.304;18.294;2024-01-15T06:29:18;98518.47;;;-5.26;67.88
76311;BME280;65120;59.304;18.294;2024-01-15T06:31:45;98526.06;;;-5.28;67.64
76311;BME280;65120;59.304;18.294;2024-01-15T06:34:12;98547.31;;;-5.31;67.48
76311;BME280;65120;59.304;18.294;2024-01-15T06:36:39;98526.03;;;-5.36;67.41
76311;BME280;65120;59.304;18.294;2024-01-15T06:39:06;98543.88;;;-5.36;67.75
76311;BME280;65120;59.304;18.294;2024-01-15T06:41:35;98542.19;;;-5.34;67.92
76311;BME280;65120;59.304;18.294;2024-01-15T06:44:09;98540.50;;;-5.38;68.06
76311;BME280;65120;59.304;18.294;2024-01-15T06:46:37;98531.13;;;-5.36;67.51
76311;BME280;65120;59.304;18.294;2024-01-15T06:49:03;98539.63;;;-5.37;67.58
76311;BME280;65120;59.304;18.294;2024-01-15T06:51:30;98547.31;;;-5.35;68.19
76311;BME280;65120;59.304;18.294;2024-01-15T06:53:57;98545.59;;;-5.35;68.34
76311;BME280;65120;59.304;18.294;2024-01-15T06:56:24;98545.56;;;-5.36;68.30
76311;BME280;65120;59.304;18.294;2024-01-15T06:58:53;98549.84;;;-5.34;67.49
76311;BME280;65120;59.304;18.294;2024-01-15T07:01:19;98550.69;;;-5.33;67.27
76311;BME280;65120;59.304;18.294;2024-01-15T07:03:46;98543.91;;;-5.34;68.03
76311;BME280;65120;59.304;18.294;2024-01-15T07:06:13;98550.69;;;-5.35;67.72
76311;BME280;65120;59.304;18.294;2024-01-15T07:08:40;98551.53;;;-5.37;67.10
76311;BME280;65120;59.304;18.294;2024-01-15T07:11:07;98532.81;;;-5.39;67.29
76311;BME280;65120;59.304;18.294;2024-01-15T07:13:36;98544.69;;;-5.43;67.74
76311;BME280;65120;59.304;18.294;2024-01-15T07:16:05;98548.94;;;-5.39;67.63
76311;BME280;65120;59.304;18.294;2024-01-15T07:18:32;98552.38;;;-5.38;67.93
76311;BME280;65120;59.304;18.294;2024-01-15T07:20:59;98550.66;;;-5.41;67.78
76311;BME280;65120;59.304;18.294;2024-01-15T07:23:28;98552.34;;;-5.40;67.88
76311;BME280;65120;59.304;18.294;2024-01-15T07:25:55;98543.00;;;-5.39;67.60
76311;BME280;65120;59.304;18.294;2024-01-15T07:28:22;98545.56;;;-5.44;67.73
76311;BME280;65120;59.304;18.294;2024-01-15T07:30:48;98550.66;;;-5.41;67.53
76311;BME280;65120;59.304;18.294;2024-01-15T07:33:17;98554.06;;;-5.40;67.51
76311;BME280;65120;59.304;18.294;2024-01-15T07:35:44;98551.50;;;-5.40;67.68
76311;BME280;65120;59.304;18.294;2024-01-15T07:38:11;98563.41;;;-5.41;67.87
76311;BME280;65120;59.304;18.294;2024-01-15T07:40:38;98552.34;;;-5.41;67.79
76311;BME280;65120;59.304;18.294;2024-01-15T07:43:05;98565.09;;;-5.43;67.92
76311;BME280;65120;59.304;18.294;2024-01-15T07:45:32;98569.31;;;-5.42;67.42
76311;BME280;65120;59.304;18.294;2024-01-15T07:47:59;98569.31;;;-5.45;67.07
76311;BME280;65120;59.304;18.294;2024-01-15T07:50:27;98565.88;;;-5.47;66.61
76311;BME280;65120;59.304;18.294;2024-01-15T07:52:54;98586.28;;;-5.47;67.20
76311;BME280;65120;59.304;18.294;2024-01-15T07:55:21;98577.78;;;-5.49;67.09
76311;BME280;65120;59.304;18.294;2024-01-15T07:57:48;98585.41;;;-5.54;66.81
76311;BME280;65120;59.304;18.294;2024-01-15T08:00:16;98575.19;;;-5.54;66.87
76311;BME280;65120;59.304;18.294;2024-01-15T08:02:43;98573.50;;;-5.55;66.36
76311;BME280;65120;59.304;18.294;2024-01-15T08:05:10;98579.44;;;-5.56;66.71
76311;BME280;65120;59.304;18.294;2024-01-15T08:07:38;98577.75;;;-5.55;66.63
76311;BME280;65120;59.304;18.294;2024-01-15T08:10:05;98589.63;;;-5.57;67.02
76311;BME280;65120;59.304;18.294;2024-01-15T08:12:32;98581.97;;;-5.57;67.12
76311;BME280;65120;59.304;18.294;2024-01-15T08:14:59;98593.03;;;-5.57;66.55
76311;BME280;65120;59.304;18.294;2024-01-15T08:17:26;98598.94;;;-5.59;66.01
76311;BME280;65120;59.304;18.294;2024-01-15T08:19:54;98594.69;;;-5.60;65.68
76311;BME280;65120;59.304;18.294;2024-01-15T08:22:22;98594.69;;;-5.62;66.42
76311;BME280;65120;59.304;18.294;2024-01-15T08:24:50;98592.16;;;-5.60;66.27
76311;BME280;65120;59.304;18.294;2024-01-15T08:27:17;98576.84;;;-5.66;66.46
76311;BME280;65120;59.304;18.294;2024-01-15T08:29:45;98607.44;;;-5.59;66.31
76311;BME280;65120;59.304;18.294;2024-01-15T08:32:12;98593.84;;;-5.59;66.74
76311;BME280;65120;59.304;18.294;2024-01-15T08:34:41;98593.84;;;-5.61;66.70
76311;BME280;65120;59.304;18.294;2024-01-15T08:37:08;98593.03;;;-5.58;66.83
76311;BME280;65120;59.304;18.294;2024-01-15T08:39:35;98592.16;;;-5.56;66.95
76311;BME280;65120;59.304;18.294;2024-01-15T08:42:05;98590.50;;;-5.55;67.23
76311;BME280;65120;59.304;18.294;2024-01-15T08:44:32;98603.22;;;-5.55;66.79
76311;BME280;65120;59.304;18.294;2024-01-15T08:46:59;98593.91;;;-5.55;66.31
76311;BME280;65120;59.304;18.294;2024-01-15T08:49:28;98601.50;;;-5.56;66.25
76311;BME280;65120;59.304;18.294;2024-01-15T08:51:55;98601.50;;;-5.56;66.60
76311;BME280;65120;59.304;18.294;2024-01-15T08:54:22;98603.22;;;-5.55;66.63
76311;BME280;65120;59.304;18.294;2024-01-15T08:56:49;98593.03;;;-5.55;66.84
76311;BME280;65120;59.304;18.294;2024-01-15T08:59:17;98600.69;;;-5.54;66.75
76311;BME280;65120;59.304;18.294;2024-01-15T09:01:50;98598.97;;;-5.53;65.97
76311;BME280;65120;59.304;18.294;2024-01-15T09:04:17;98596.41;;;-5.56;66.55
76311;BME280;65120;59.304;18.294;2024-01-15T09:06:44;98612.56;;;-5.53;66.22
76311;BME280;65120;59.304;18.294;2024-01-15T09:09:12;98612.56;;;-5.54;66.13
76311;BME280;65120;59.304;18.294;2024-01-15T09:11:39;98607.47;;;-5.54;66.31
76311;BME280;65120;59.304;18.294;2024-01-15T09:14:06;98608.34;;;-5.55;65.99
76311;BME280;65120;59.304;18.294;2024-01-15T09:16:36;98608.34;;;-5.55;66.42
76311;BME280;65120;59.304;18.294;2024-01-15T09:19:03;98612.56;;;-5.53;66.12
76311;BME280;65120;59.304;18.294;2024-01-15T09:21:30;98611.69;;;-5.56;66.35
76311;BME280;65120;59.304;18.294;2024-01-15T09:23:57;98621.91;;;-5.53;66.27
76311;BME280;65120;59.304;18.294;2024-01-15T09:26:24;98625.34;;;-5.51;66.28
76311;BME280;65120;59.304;18.294;2024-01-15T09:28:51;98619.38;;;-5.53;65.30
76311;BME280;65120;59.304;18.294;2024-01-15T09:31:18;98615.97;;;-5.54;65.51
76311;BME280;65120;59.304;18.294;2024-01-15T09:33:47;98611.72;;;-5.53;65.58
76311;BME280;65120;59.304;18.294;2024-01-15T09:36:14;98614.28;;;-5.55;64.98
76311;BME280;65120;59.304;18.294;2024-01-15T09:38:41;98615.13;;;-5.54;65.72
76311;BME280;65120;59.304;18.294;2024-01-15T09:41:08;98613.41;;;-5.54;65.64
76311;BME280;65120;59.304;18.294;2024-01-15T09:43:36;98610.91;;;-5.52;65.12
76311;BME280;65120;59.304;18.294;2024-01-15T09:46:04;98624.47;;;-5.55;65.32
76311;BME280;65120;59.304;18.294;2024-01-15T09:48:31;98616.81;;;-5.53;64.52
76311;BME280;65120;59.304;18.294;2024-01-15T09:51:01;98622.75;;;-5.56;64.45
76311;BME280;65120;59.304;18.294;2024-01-15T09:53:28;98618.50;;;-5.58;64.75
76311;BME280;65120;59.304;18.294;2024-01-15T09:55:56;98623.59;;;-5.58;64.84
76311;BME280;65120;59.304;18.294;2024-01-15T09:58:23;98630.38;;;-5.57;65.04
76311;BME280;65120;59.304;18.294;2024-01-15T10:00:50;98647.38;;;-5.56;65.25
76311;BME280;65120;59.304;18.294;2024-01-15T10:03:18;98635.47;;;-5.57;64.67
76311;BME280;65120;59.304;18.294;2024-01-15T10:05:46;98633.78;;;-5.58;64.78
76311;BME280;65120;59.304;18.294;2024-01-15T10:08:16;98654.97;;;-5.62;65.05
76311;BME280;65120;59.304;18.294;2024-01-15T10:10:43;98644.81;;;-5.56;65.10
76311;BME280;65120;59.304;18.294;2024-01-15T10:13:11;98633.78;;;-5.57;64.46
76311;BME280;65120;59.304;18.294;2024-01-15T10:15:38;98647.38;;;-5.56;63.96
76311;BME280;65120;59.304;18.294;2024-01-15T10:18:05;98643.13;;;-5.57;64.11
76311;BME280;65120;59.304;18.294;2024-01-15T10:20:32;98629.53;;;-5.58;64.58
76311;BME280;65120;59.304;18.294;2024-01-15T10:22:59;98649.91;;;-5.56;64.35
76311;BME280;65120;59.304;18.294;2024-01-15T10:25:27;98640.56;;;-5.56;64.54
76311;BME280;65120;59.304;18.294;2024-01-15T10:27:59;98649.06;;;-5.58;64.83
76311;BME280;65120;59.304;18.294;2024-01-15T10:30:27;98652.47;;;-5.53;64.61
76311;BME280;65120;59.304;18.294;2024-01-15T10:32:58;98667.81;;;-5.52;64.31
76311;BME280;65120;59.304;18.294;2024-01-15T10:35:27;98659.31;;;-5.52;64.35
76311;BME280;65120;59.304;18.294;2024-01-15T10:37:54;98664.38;;;-5.55;62.95
76311;BME280;65120;59.304;18.294;2024-01-15T10:40:21;98656.75;;;-5.52;63.40
76311;BME280;65120;59.304;18.294;2024-01-15T10:42:50;98656.75;;;-5.52;64.15
76311;BME280;65120;59.304;18.294;2024-01-15T10:45:17;98659.31;;;-5.52;62.96
76311;BME280;65120;59.304;18.294;2024-01-15T10:47:44;98655.88;;;-5.53;62.64
76311;BME280;65120;59.304;18.294;2024-01-15T10:50:12;98669.50;;;-5.52;62.35
76311;BME280;65120;59.304;18.294;2024-01-15T10:52:40;98643.97;;;-5.57;62.29
76311;BME280;65120;59.304;18.294;2024-01-15T10:55:09;98667.78;;;-5.53;62.32
76311;BME280;65120;59.304;18.294;2024-01-15T10:57:37;98666.94;;;-5.54;62.55
76311;BME280;65120;59.304;18.294;2024-01-15T11:00:07;98668.63;;;-5.54;62.22
76311;BME280;65120;59.304;18.294;2024-01-15T11:02:40;98671.16;;;-5.53;62.58
76311;BME280;65120;59.304;18.294;2024-01-15T11:05:08;98662.69;;;-5.55;62.12
76311;BME280;65120;59.304;18.294;2024-01-15T11:07:35;98667.78;;;-5.50;62.19
76311;BME280;65120;59.304;18.294;2024-01-15T11:10:03;98672.06;;;-5.52;62.01
76311;BME280;65120;59.304;18.294;2024-01-15T11:12:31;98672.91;;;-5.50;62.48
76311;BME280;65120;59.304;18.294;2024-01-15T11:15:02;98685.63;;;-5.50;61.64
76311;BME280;65120;59.304;18.294;2024-01-15T11:17:59;98678.88;;;-5.48;61.91
76311;BME280;65120;59.304;18.294;2024-01-15T11:20:27;98668.69;;;-5.49;61.00
76311;BME280;65120;59.304;18.294;2024-01-15T11:22:54;98679.69;;;-5.50;60.92
76311;BME280;65120;59.304;18.294;2024-01-15T11:25:22;98677.16;;;-5.49;61.98
76311;BME280;65120;59.304;18.294;2024-01-15T11:27:51;98667.81;;;-5.48;61.48
76311;BME280;65120;59.304;18.294;2024-01-15T11:30:19;98681.41;;;-5.48;61.23
76311;BME280;65120;59.304;18.294;2024-01-15T11:32:46;98667.84;;;-5.45;61.84
76311;BME280;65120;59.304;18.294;2024-01-15T11:35:15;98671.25;;;-5.45;62.35
76311;BME280;65120;59.304;18.294;2024-01-15T11:37:57;98672.09;;;-5.41;61.72
76311;BME280;65120;59.304;18.294;2024-01-15T11:40:36;98667.00;;;-5.41;62.07
76311;BME280;65120;59.304;18.294;2024-01-15T11:43:04;98661.06;;;-5.42;61.60
76311;BME280;65120;59.304;18.294;2024-01-15T11:45:32;98672.97;;;-5.42;61.95
76311;BME280;65120;59.304;18.294;2024-01-15T11:48:11;98683.16;;;-5.44;61.11
76311;BME280;65120;59.304;18.294;2024-01-15T11:50:41;98671.25;;;-5.45;60.68
76311;BME280;65120;59.304;18.294;2024-01-15T11:53:21;98680.63;;;-5.44;61.74
76311;BME280;65120;59.304;18.294;2024-01-15T11:55:58;98681.44;;;-5.45;61.29
76311;BME280;65120;59.304;18.294;2024-01-15T11:58:25;98684.00;;;-5.43;61.47
76311;BME280;65120;59.304;18.294;2024-01-15T12:00:52;98665.31;;;-5.44;60.88
76311;BME280;65120;59.304;18.294;2024-01-15T12:03:20;98670.41;;;-5.45;61.36
76311;BME280;65120;59.304;18.294;2024-01-15T12:05:49;98668.72;;;-5.43;61.86
76311;BME280;65120;59.304;18.294;2024-01-15T12:08:21;98690.81;;;-5.42;61.80
76311;BME280;65120;59.304;18.294;2024-01-15T12:10:48;98689.94;;;-5.43;61.85
76311;BME280;65120;59.304;18.294;2024-01-15T12:13:15;98684.00;;;-5.46;61.18
76311;BME280;65120;59.304;18.294;2024-01-15T12:15:43;98685.72;;;-5.44;61.16
76311;BME280;65120;59.304;18.294;2024-01-15T12:18:12;98686.53;;;-5.46;61.31
76311;BME280;65120;59.304;18.294;2024-01-15T12:20:40;98665.28;;;-5.47;61.41
76311;BME280;65120;59.304;18.294;2024-01-15T12:23:09;98677.19;;;-5.46;61.34
76311;BME280;65120;59.304;18.294;2024-01-15T12:25:36;98683.97;;;-5.45;61.07
76311;BME280;65120;59.304;18.294;2024-01-15T12:28:04;98686.50;;;-5.48;60.94
76311;BME280;65120;59.304;18.294;2024-01-15T12:30:33;98690.81;;;-5.44;61.10
76311;BME280;65120;59.304;18.294;2024-01-15T12:33:01;98685.69;;;-5.45;60.94
76311;BME280;65120;59.304;18.294;2024-01-15T12:35:30;98688.19;;;-5.47;59.80
76311;BME280;65120;59.304;18.294;2024-01-15T12:37:59;98688.19;;;-5.47;60.51
76311;BME280;65120;59.304;18.294;2024-01-15T12:40:30;98697.56;;;-5.46;60.70
76311;BME280;65120;59.304;18.294;2024-01-15T12:42:57;98694.19;;;-5.46;60.38
76311;BME280;65120;59.304;18.294;2024-01-15T12:45:24;98705.22;;;-5.44;60.81
76311;BME280;65120;59.304;18.294;2024-01-15T12:47:51;98698.44;;;-5.44;60.01
76311;BME280;65120;59.304;18.294;2024-01-15T12:50:18;98698.44;;;-5.44;60.67
76311;BME280;65120;59.304;18.294;2024-01-15T12:52:45;98706.94;;;-5.42;60.46